sensor_id;sensor_type;location;lat;lon;timestamp;P1;durP1;ratioP1;P2;durP2;ratioP2
54235;SDS011;40151;43.606;1.472;2023-02-01T00:14:35;6.95;;;3.70;;
54235;SDS011;40151;43.606;1.472;2023-02-01T00:17:04;4.97;;;3.25;;
54235;SDS011;40151;43.606;1.472;2023-02-01T00:19:32;6.25;;;3.20;;
54235;SDS011;40151;43.606;1.472;2023-02-01T00:21:59;4.93;;;2.72;;
54235;SDS011;40151;43.606;1.472;2023-02-01T00:24:25;4.50;;;2.90;;
54235;SDS011;40151;43.606;1.472;2023-02-01T00:27:10;6.35;;;2.92;;
54235;SDS011;40151;43.606;1.472;2023-02-01T00:29:56;5.72;;;3.00;;
54235;SDS011;40151;43.606;1.472;2023-02-01T00:32:21;4.75;;;2.90;;
54235;SDS011;40151;43.606;1.472;2023-02-01T00:34:47;5.90;;;3.30;;
54235;SDS011;40151;43.606;1.472;2023-02-01T00:37:15;5.53;;;2.92;;
54235;SDS011;40151;43.606;1.472;2023-02-01T00:39:43;5.43;;;3.13;;
54235;SDS011;40151;43.606;1.472;2023-02-01T00:42:10;5.20;;;2.90;;
54235;SDS011;40151;43.606;1.472;2023-02-01T00:44:37;4.78;;;3.03;;
54235;SDS011;40151;43.606;1.472;2023-02-01T00:47:05;5.00;;;3.22;;
54235;SDS011;40151;43.606;1.472;2023-02-01T00:49:32;5.93;;;3.10;;
54235;SDS011;40151;43.606;1.472;2023-02-01T00:51:59;4.80;;;2.80;;
54235;SDS011;40151;43.606;1.472;2023-02-01T00:54:34;4.90;;;2.92;;
54235;SDS011;40151;43.606;1.472;2023-02-01T00:57:04;4.60;;;3.30;;
54235;SDS011;40151;43.606;1.472;2023-02-01T00:59:32;5.10;;;3.00;;
54235;SDS011;40151;43.606;1.472;2023-02-01T01:02:00;5.43;;;3.13;;
54235;SDS011;40151;43.606;1.472;2023-02-01T01:04:27;5.40;;;3.03;;
54235;SDS011;40151;43.606;1.472;2023-02-01T01:06:53;4.68;;;2.85;;
54235;SDS011;40151;43.606;1.472;2023-02-01T01:09:18;4.70;;;2.95;;
54235;SDS011;40151;43.606;1.472;2023-02-01T01:11:44;5.22;;;3.15;;
54235;SDS011;40151;43.606;1.472;2023-02-01T01:14:11;4.32;;;2.95;;
54235;SDS011;40151;43.606;1.472;2023-02-01T01:16:37;4.40;;;2.72;;
54235;SDS011;40151;43.606;1.472;2023-02-01T01:19:03;4.82;;;3.00;;
54235;SDS011;40151;43.606;1.472;2023-02-01T01:21:32;4.68;;;3.15;;
54235;SDS011;40151;43.606;1.472;2023-02-01T01:23:59;4.68;;;3.00;;
54235;SDS011;40151;43.606;1.472;2023-02-01T01:26:25;4.22;;;2.80;;
54235;SDS011;40151;43.606;1.472;2023-02-01T01:28:53;5.40;;;3.10;;
54235;SDS011;40151;43.606;1.472;2023-02-01T01:31:25;4.75;;;2.90;;
54235;SDS011;40151;43.606;1.472;2023-02-01T01:33:51;5.35;;;2.90;;
54235;SDS011;40151;43.606;1.472;2023-02-01T01:36:19;3.55;;;2.40;;
54235;SDS011;40151;43.606;1.472;2023-02-01T01:38:45;4.55;;;3.13;;
54235;SDS011;40151;43.606;1.472;2023-02-01T01:41:16;4.00;;;2.70;;
54235;SDS011;40151;43.606;1.472;2023-02-01T01:46:24;4.68;;;2.85;;
54235;SDS011;40151;43.606;1.472;2023-02-01T01:48:56;4.45;;;2.72;;
54235;SDS011;40151;43.606;1.472;2023-02-01T01:51:27;4.68;;;2.78;;
54235;SDS011;40151;43.606;1.472;2023-02-01T01:53:59;5.22;;;2.83;;
54235;SDS011;40151;43.606;1.472;2023-02-01T01:56:31;4.25;;;2.78;;
54235;SDS011;40151;43.606;1.472;2023-02-01T01:58:59;4.47;;;2.92;;
54235;SDS011;40151;43.606;1.472;2023-02-01T02:01:25;4.03;;;2.78;;
54235;SDS011;40151;43.606;1.472;2023-02-01T02:03:51;4.47;;;2.97;;
54235;SDS011;40151;43.606;1.472;2023-02-01T02:06:30;5.30;;;3.20;;
54235;SDS011;40151;43.606;1.472;2023-02-01T02:09:04;4.25;;;2.90;;
54235;SDS011;40151;43.606;1.472;2023-02-01T02:11:30;5.25;;;3.00;;
54235;SDS011;40151;43.606;1.472;2023-02-01T02:13:55;4.95;;;3.17;;
54235;SDS011;40151;43.606;1.472;2023-02-01T02:19:28;4.43;;;3.13;;
54235;SDS011;40151;43.606;1.472;2023-02-01T02:38:29;4.63;;;2.72;;
54235;SDS011;40151;43.606;1.472;2023-02-01T02:53:16;3.95;;;2.65;;
54235;SDS011;40151;43.606;1.472;2023-02-01T02:56:05;4.68;;;2.90;;
54235;SDS011;40151;43.606;1.472;2023-02-01T02:58:51;6.10;;;3.40;;
54235;SDS011;40151;43.606;1.472;2023-02-01T03:01:35;4.72;;;3.08;;
54235;SDS011;40151;43.606;1.472;2023-02-01T03:04:23;4.47;;;2.80;;
54235;SDS011;40151;43.606;1.472;2023-02-01T03:06:51;4.90;;;2.92;;
54235;SDS011;40151;43.606;1.472;2023-02-01T03:09:40;4.15;;;2.83;;
54235;SDS011;40151;43.606;1.472;2023-02-01T03:12:08;5.30;;;2.97;;
54235;SDS011;40151;43.606;1.472;2023-02-01T03:15:06;5.03;;;2.95;;
54235;SDS011;40151;43.606;1.472;2023-02-01T03:17:39;4.85;;;2.67;;
54235;SDS011;40151;43.606;1.472;2023-02-01T03:20:08;4.32;;;2.60;;
54235;SDS011;40151;43.606;1.472;2023-02-01T03:22:38;4.60;;;2.67;;
54235;SDS011;40151;43.606;1.472;2023-02-01T03:25:10;4.97;;;2.63;;
54235;SDS011;40151;43.606;1.472;2023-02-01T03:28:03;4.97;;;2.92;;
54235;SDS011;40151;43.606;1.472;2023-02-01T03:30:34;4.60;;;2.50;;
54235;SDS011;40151;43.606;1.472;2023-02-01T03:33:08;5.00;;;2.65;;
54235;SDS011;40151;43.606;1.472;2023-02-01T03:38:27;3.92;;;2.60;;
54235;SDS011;40151;43.606;1.472;2023-02-01T03:41:01;4.38;;;2.55;;
54235;SDS011;40151;43.606;1.472;2023-02-01T03:43:47;4.57;;;2.80;;
54235;SDS011;40151;43.606;1.472;2023-02-01T03:46:43;4.45;;;2.53;;
54235;SDS011;40151;43.606;1.472;2023-02-01T03:52:01;5.10;;;3.25;;
54235;SDS011;40151;43.606;1.472;2023-02-01T03:54:28;4.47;;;2.80;;
54235;SDS011;40151;43.606;1.472;2023-02-01T03:56:56;4.57;;;2.30;;
54235;SDS011;40151;43.606;1.472;2023-02-01T03:59:26;5.03;;;2.80;;
54235;SDS011;40151;43.606;1.472;2023-02-01T04:01:52;4.07;;;2.70;;
54235;SDS011;40151;43.606;1.472;2023-02-01T04:04:18;4.78;;;2.53;;
54235;SDS011;40151;43.606;1.472;2023-02-01T04:06:47;4.10;;;2.47;;
54235;SDS011;40151;43.606;1.472;2023-02-01T04:09:13;4.90;;;2.70;;
54235;SDS011;40151;43.606;1.472;2023-02-01T04:11:39;4.22;;;2.58;;
54235;SDS011;40151;43.606;1.472;2023-02-01T04:14:05;4.15;;;2.70;;
54235;SDS011;40151;43.606;1.472;2023-02-01T04:16:31;3.53;;;2.33;;
54235;SDS011;40151;43.606;1.472;2023-02-01T04:18:57;4.00;;;2.63;;
54235;SDS011;40151;43.606;1.472;2023-02-01T04:21:23;4.00;;;2.47;;
54235;SDS011;40151;43.606;1.472;2023-02-01T04:23:53;4.40;;;2.60;;
54235;SDS011;40151;43.606;1.472;2023-02-01T04:26:19;4.35;;;2.70;;
54235;SDS011;40151;43.606;1.472;2023-02-01T04:28:47;3.67;;;2.20;;
54235;SDS011;40151;43.606;1.472;2023-02-01T04:31:14;4.28;;;2.50;;
54235;SDS011;40151;43.606;1.472;2023-02-01T04:33:40;4.15;;;2.53;;
54235;SDS011;40151;43.606;1.472;2023-02-01T04:36:06;4.82;;;2.63;;
54235;SDS011;40151;43.606;1.472;2023-02-01T04:38:31;4.38;;;2.38;;
54235;SDS011;40151;43.606;1.472;2023-02-01T04:40:57;3.90;;;2.33;;
54235;SDS011;40151;43.606;1.472;2023-02-01T04:43:23;3.88;;;2.40;;
54235;SDS011;40151;43.606;1.472;2023-02-01T04:45:50;3.70;;;2.25;;
54235;SDS011;40151;43.606;1.472;2023-02-01T04:48:17;4.35;;;2.58;;
54235;SDS011;40151;43.606;1.472;2023-02-01T04:50:44;4.60;;;2.70;;
54235;SDS011;40151;43.606;1.472;2023-02-01T04:53:13;3.42;;;2.22;;
54235;SDS011;40151;43.606;1.472;2023-02-01T04:55:42;4.13;;;2.35;;
54235;SDS011;40151;43.606;1.472;2023-02-01T04:58:09;3.75;;;2.38;;
54235;SDS011;40151;43.606;1.472;2023-02-01T05:00:36;4.97;;;2.63;;
54235;SDS011;40151;43.606;1.472;2023-02-01T05:03:02;3.53;;;2.03;;
54235;SDS011;40151;43.606;1.472;2023-02-01T05:05:28;3.80;;;2.15;;
54235;SDS011;40151;43.606;1.472;2023-02-01T05:07:54;5.55;;;2.53;;
54235;SDS011;40151;43.606;1.472;2023-02-01T05:10:19;3.42;;;2.08;;
54235;SDS011;40151;43.606;1.472;2023-02-01T05:12:45;5.10;;;2.78;;
54235;SDS011;40151;43.606;1.472;2023-02-01T05:15:30;4.28;;;2.40;;
54235;SDS011;40151;43.606;1.472;2023-02-01T05:17:56;3.90;;;2.47;;
54235;SDS011;40151;43.606;1.472;2023-02-01T05:20:22;4.00;;;2.40;;
54235;SDS011;40151;43.606;1.472;2023-02-01T05:22:47;3.90;;;2.17;;
54235;SDS011;40151;43.606;1.472;2023-02-01T05:25:13;3.92;;;2.58;;
54235;SDS011;40151;43.606;1.472;2023-02-01T05:27:39;3.63;;;2.15;;
54235;SDS011;40151;43.606;1.472;2023-02-01T05:30:06;3.80;;;2.25;;
54235;SDS011;40151;43.606;1.472;2023-02-01T05:32:33;3.53;;;2.20;;
54235;SDS011;40151;43.606;1.472;2023-02-01T05:34:59;3.72;;;2.20;;
54235;SDS011;40151;43.606;1.472;2023-02-01T05:37:24;4.43;;;2.42;;
54235;SDS011;40151;43.606;1.472;2023-02-01T05:39:50;3.70;;;2.40;;
54235;SDS011;40151;43.606;1.472;2023-02-01T05:42:15;4.53;;;2.63;;
54235;SDS011;40151;43.606;1.472;2023-02-01T05:44:41;4.35;;;2.00;;
54235;SDS011;40151;43.606;1.472;2023-02-01T05:47:08;3.85;;;2.10;;
54235;SDS011;40151;43.606;1.472;2023-02-01T05:49:33;3.22;;;2.00;;
54235;SDS011;40151;43.606;1.472;2023-02-01T05:52:00;3.80;;;2.17;;
54235;SDS011;40151;43.606;1.472;2023-02-01T05:54:26;3.42;;;1.98;;
54235;SDS011;40151;43.606;1.472;2023-02-01T05:56:51;3.47;;;2.00;;
54235;SDS011;40151;43.606;1.472;2023-02-01T05:59:17;4.20;;;1.80;;
54235;SDS011;40151;43.606;1.472;2023-02-01T06:01:43;2.65;;;1.75;;
54235;SDS011;40151;43.606;1.472;2023-02-01T06:04:09;3.45;;;1.90;;
54235;SDS011;40151;43.606;1.472;2023-02-01T06:06:34;4.38;;;2.30;;
54235;SDS011;40151;43.606;1.472;2023-02-01T06:09:02;3.60;;;2.28;;
54235;SDS011;40151;43.606;1.472;2023-02-01T06:11:28;4.00;;;2.25;;
54235;SDS011;40151;43.606;1.472;2023-02-01T06:13:54;4.00;;;2.20;;
54235;SDS011;40151;43.606;1.472;2023-02-01T06:16:20;3.25;;;2.00;;
54235;SDS011;40151;43.606;1.472;2023-02-01T06:18:48;3.42;;;2.13;;
54235;SDS011;40151;43.606;1.472;2023-02-01T06:21:14;3.40;;;1.88;;
54235;SDS011;40151;43.606;1.472;2023-02-01T06:23:52;3.78;;;2.08;;
54235;SDS011;40151;43.606;1.472;2023-02-01T06:26:21;3.72;;;2.20;;
54235;SDS011;40151;43.606;1.472;2023-02-01T06:28:48;3.17;;;1.75;;
54235;SDS011;40151;43.606;1.472;2023-02-01T06:31:14;3.00;;;1.67;;
54235;SDS011;40151;43.606;1.472;2023-02-01T06:33:40;3.53;;;2.05;;
54235;SDS011;40151;43.606;1.472;2023-02-01T06:36:06;3.08;;;1.75;;
54235;SDS011;40151;43.606;1.472;2023-02-01T06:38:37;2.83;;;1.70;;
54235;SDS011;40151;43.606;1.472;2023-02-01T06:41:03;3.13;;;1.70;;
54235;SDS011;40151;43.606;1.472;2023-02-01T06:43:33;3.40;;;2.08;;
54235;SDS011;40151;43.606;1.472;2023-02-01T06:46:02;4.18;;;2.08;;
54235;SDS011;40151;43.606;1.472;2023-02-01T06:48:38;3.85;;;1.88;;
54235;SDS011;40151;43.606;1.472;2023-02-01T06:51:05;2.60;;;1.55;;
54235;SDS011;40151;43.606;1.472;2023-02-01T06:53:31;3.30;;;1.92;;
54235;SDS011;40151;43.606;1.472;2023-02-01T06:55:59;3.60;;;1.80;;
54235;SDS011;40151;43.606;1.472;2023-02-01T06:58:32;3.15;;;2.03;;
54235;SDS011;40151;43.606;1.472;2023-02-01T07:00:58;3.40;;;1.90;;
54235;SDS011;40151;43.606;1.472;2023-02-01T07:03:32;3.97;;;1.83;;
54235;SDS011;40151;43.606;1.472;2023-02-01T07:06:03;3.60;;;1.88;;
54235;SDS011;40151;43.606;1.472;2023-02-01T07:08:35;3.40;;;1.75;;
54235;SDS011;40151;43.606;1.472;2023-02-01T07:11:06;3.60;;;2.08;;
54235;SDS011;40151;43.606;1.472;2023-02-01T07:13:33;3.88;;;1.85;;
54235;SDS011;40151;43.606;1.472;2023-02-01T07:16:01;3.30;;;1.98;;
54235;SDS011;40151;43.606;1.472;2023-02-01T07:18:30;3.53;;;2.15;;
54235;SDS011;40151;43.606;1.472;2023-02-01T07:20:58;3.47;;;1.92;;
54235;SDS011;40151;43.606;1.472;2023-02-01T07:23:25;4.25;;;1.88;;
54235;SDS011;40151;43.606;1.472;2023-02-01T07:25:55;3.08;;;1.75;;
54235;SDS011;40151;43.606;1.472;2023-02-01T07:28:23;3.33;;;1.98;;
54235;SDS011;40151;43.606;1.472;2023-02-01T07:30:49;3.63;;;2.03;;
54235;SDS011;40151;43.606;1.472;2023-02-01T07:33:18;3.35;;;2.00;;
54235;SDS011;40151;43.606;1.472;2023-02-01T07:35:48;4.68;;;1.70;;
54235;SDS011;40151;43.606;1.472;2023-02-01T07:38:15;3.20;;;1.80;;
54235;SDS011;40151;43.606;1.472;2023-02-01T07:40:41;4.03;;;2.00;;
54235;SDS011;40151;43.606;1.472;2023-02-01T07:48:52;2.72;;;1.58;;
54235;SDS011;40151;43.606;1.472;2023-02-01T07:51:20;2.42;;;1.67;;
54235;SDS011;40151;43.606;1.472;2023-02-01T07:53:46;2.65;;;1.55;;
54235;SDS011;40151;43.606;1.472;2023-02-01T07:56:12;3.78;;;1.73;;
54235;SDS011;40151;43.606;1.472;2023-02-01T07:58:42;3.00;;;1.60;;
54235;SDS011;40151;43.606;1.472;2023-02-01T08:01:18;3.00;;;1.63;;
54235;SDS011;40151;43.606;1.472;2023-02-01T08:03:46;3.95;;;2.22;;
54235;SDS011;40151;43.606;1.472;2023-02-01T08:06:40;3.55;;;2.03;;
54235;SDS011;40151;43.606;1.472;2023-02-01T08:09:07;2.53;;;1.58;;
54235;SDS011;40151;43.606;1.472;2023-02-01T08:11:33;2.75;;;1.60;;
54235;SDS011;40151;43.606;1.472;2023-02-01T08:13:59;3.75;;;1.40;;
54235;SDS011;40151;43.606;1.472;2023-02-01T08:16:25;2.80;;;1.50;;
54235;SDS011;40151;43.606;1.472;2023-02-01T08:18:50;3.53;;;1.75;;
54235;SDS011;40151;43.606;1.472;2023-02-01T08:21:21;3.67;;;1.73;;
54235;SDS011;40151;43.606;1.472;2023-02-01T08:23:48;2.45;;;1.50;;
54235;SDS011;40151;43.606;1.472;2023-02-01T08:26:23;2.72;;;1.40;;
54235;SDS011;40151;43.606;1.472;2023-02-01T08:28:51;2.65;;;1.40;;
54235;SDS011;40151;43.606;1.472;2023-02-01T08:31:25;3.10;;;1.48;;
54235;SDS011;40151;43.606;1.472;2023-02-01T08:33:55;2.88;;;1.50;;
54235;SDS011;40151;43.606;1.472;2023-02-01T08:36:28;2.50;;;1.52;;
54235;SDS011;40151;43.606;1.472;2023-02-01T08:38:54;3.53;;;1.73;;
54235;SDS011;40151;43.606;1.472;2023-02-01T08:41:21;2.50;;;1.60;;
54235;SDS011;40151;43.606;1.472;2023-02-01T08:43:49;2.63;;;1.60;;
54235;SDS011;40151;43.606;1.472;2023-02-01T08:46:15;2.78;;;1.50;;
54235;SDS011;40151;43.606;1.472;2023-02-01T08:48:40;3.00;;;1.60;;
54235;SDS011;40151;43.606;1.472;2023-02-01T08:51:09;2.60;;;1.40;;
54235;SDS011;40151;43.606;1.472;2023-02-01T08:53:37;3.40;;;1.90;;
54235;SDS011;40151;43.606;1.472;2023-02-01T08:56:03;3.05;;;1.70;;
54235;SDS011;40151;43.606;1.472;2023-02-01T08:58:30;3.38;;;1.75;;
54235;SDS011;40151;43.606;1.472;2023-02-01T09:00:55;2.72;;;1.40;;
54235;SDS011;40151;43.606;1.472;2023-02-01T09:03:21;2.47;;;1.60;;
54235;SDS011;40151;43.606;1.472;2023-02-01T09:05:46;2.90;;;1.60;;
54235;SDS011;40151;43.606;1.472;2023-02-01T09:08:12;2.75;;;1.55;;
54235;SDS011;40151;43.606;1.472;2023-02-01T09:10:40;2.92;;;1.50;;
54235;SDS011;40151;43.606;1.472;2023-02-01T09:13:06;2.55;;;1.40;;
54235;SDS011;40151;43.606;1.472;2023-02-01T09:15:33;3.10;;;1.45;;
54235;SDS011;40151;43.606;1.472;2023-02-01T09:18:00;2.70;;;1.55;;
54235;SDS011;40151;43.606;1.472;2023-02-01T09:20:25;3.15;;;1.70;;
54235;SDS011;40151;43.606;1.472;2023-02-01T09:22:52;2.20;;;1.42;;
54235;SDS011;40151;43.606;1.472;2023-02-01T09:25:20;3.47;;;1.65;;
54235;SDS011;40151;43.606;1.472;2023-02-01T09:27:46;2.35;;;1.33;;
54235;SDS011;40151;43.606;1.472;2023-02-01T09:30:13;3.83;;;1.63;;
54235;SDS011;40151;43.606;1.472;2023-02-01T09:32:39;1.90;;;1.20;;
54235;SDS011;40151;43.606;1.472;2023-02-01T09:35:05;3.33;;;1.75;;
54235;SDS011;40151;43.606;1.472;2023-02-01T09:37:30;3.35;;;1.50;;
54235;SDS011;40151;43.606;1.472;2023-02-01T09:39:56;2.03;;;1.30;;
54235;SDS011;40151;43.606;1.472;2023-02-01T09:45:17;2.97;;;1.85;;
54235;SDS011;40151;43.606;1.472;2023-02-01T09:47:46;2.57;;;1.30;;
54235;SDS011;40151;43.606;1.472;2023-02-01T09:50:22;2.42;;;1.60;;
54235;SDS011;40151;43.606;1.472;2023-02-01T09:52:55;2.92;;;1.63;;
54235;SDS011;40151;43.606;1.472;2023-02-01T10:01:26;2.70;;;1.38;;
54235;SDS011;40151;43.606;1.472;2023-02-01T10:04:01;2.60;;;1.45;;
54235;SDS011;40151;43.606;1.472;2023-02-01T10:09:23;1.98;;;1.20;;
54235;SDS011;40151;43.606;1.472;2023-02-01T10:12:32;3.25;;;1.40;;
54235;SDS011;40151;43.606;1.472;2023-02-01T10:27:13;2.57;;;1.30;;
54235;SDS011;40151;43.606;1.472;2023-02-01T10:32:20;3.83;;;1.30;;
54235;SDS011;40151;43.606;1.472;2023-02-01T10:34:52;2.45;;;1.30;;
54235;SDS011;40151;43.606;1.472;2023-02-01T10:37:39;2.38;;;1.30;;
54235;SDS011;40151;43.606;1.472;2023-02-01T10:40:17;3.67;;;1.30;;
54235;SDS011;40151;43.606;1.472;2023-02-01T10:42:51;2.70;;;1.20;;
54235;SDS011;40151;43.606;1.472;2023-02-01T10:45:22;3.13;;;1.20;;
54235;SDS011;40151;43.606;1.472;2023-02-01T10:47:58;2.38;;;1.30;;
54235;SDS011;40151;43.606;1.472;2023-02-01T10:50:40;2.25;;;1.05;;
54235;SDS011;40151;43.606;1.472;2023-02-01T10:53:35;3.22;;;1.42;;
54235;SDS011;40151;43.606;1.472;2023-02-01T10:56:08;3.67;;;1.23;;
54235;SDS011;40151;43.606;1.472;2023-02-01T10:58:35;2.08;;;1.23;;
54235;SDS011;40151;43.606;1.472;2023-02-01T11:01:08;2.75;;;1.10;;
54235;SDS011;40151;43.606;1.472;2023-02-01T11:03:44;2.55;;;1.42;;
54235;SDS011;40151;43.606;1.472;2023-02-01T11:06:38;2.65;;;1.20;;
54235;SDS011;40151;43.606;1.472;2023-02-01T11:15:29;4.45;;;1.52;;
54235;SDS011;40151;43.606;1.472;2023-02-01T11:17:50;2.10;;;1.08;;
54235;SDS011;40151;43.606;1.472;2023-02-01T11:23:21;3.67;;;1.30;;
54235;SDS011;40151;43.606;1.472;2023-02-01T11:25:51;2.13;;;1.30;;
54235;SDS011;40151;43.606;1.472;2023-02-01T11:28:31;2.13;;;1.10;;
54235;SDS011;40151;43.606;1.472;2023-02-01T11:31:38;4.18;;;1.45;;
54235;SDS011;40151;43.606;1.472;2023-02-01T11:34:16;3.58;;;1.30;;
54235;SDS011;40151;43.606;1.472;2023-02-01T11:36:52;3.95;;;1.45;;
54235;SDS011;40151;43.606;1.472;2023-02-01T11:39:28;3.95;;;1.20;;
54235;SDS011;40151;43.606;1.472;2023-02-01T12:16:35;2.08;;;1.10;;
54235;SDS011;40151;43.606;1.472;2023-02-01T14:42:47;2.75;;;1.17;;
54235;SDS011;40151;43.606;1.472;2023-02-01T14:50:57;2.83;;;1.60;;
54235;SDS011;40151;43.606;1.472;2023-02-01T15:01:22;1.42;;;1.00;;
54235;SDS011;40151;43.606;1.472;2023-02-01T15:12:24;2.28;;;1.05;;
54235;SDS011;40151;43.606;1.472;2023-02-01T15:17:38;2.80;;;1.38;;
54235;SDS011;40151;43.606;1.472;2023-02-01T15:20:13;2.85;;;1.40;;
54235;SDS011;40151;43.606;1.472;2023-02-01T15:25:21;2.83;;;1.30;;
54235;SDS011;40151;43.606;1.472;2023-02-01T15:27:52;2.67;;;1.30;;
54235;SDS011;40151;43.606;1.472;2023-02-01T15:30:39;2.63;;;1.08;;
54235;SDS011;40151;43.606;1.472;2023-02-01T15:43:38;1.60;;;1.00;;
54235;SDS011;40151;43.606;1.472;2023-02-01T15:46:21;3.05;;;1.20;;
54235;SDS011;40151;43.606;1.472;2023-02-01T15:48:51;2.50;;;1.00;;
54235;SDS011;40151;43.606;1.472;2023-02-01T15:51:21;2.22;;;1.20;;
54235;SDS011;40151;43.606;1.472;2023-02-01T15:53:50;3.10;;;1.20;;
54235;SDS011;40151;43.606;1.472;2023-02-01T15:56:22;2.42;;;0.90;;
54235;SDS011;40151;43.606;1.472;2023-02-01T15:58:56;1.98;;;1.00;;
54235;SDS011;40151;43.606;1.472;2023-02-01T16:01:28;2.88;;;1.13;;
54235;SDS011;40151;43.606;1.472;2023-02-01T16:06:47;2.35;;;1.10;;
54235;SDS011;40151;43.606;1.472;2023-02-01T16:11:52;1.73;;;0.98;;
54235;SDS011;40151;43.606;1.472;2023-02-01T16:14:23;2.33;;;1.02;;
54235;SDS011;40151;43.606;1.472;2023-02-01T16:16:49;1.83;;;1.00;;
54235;SDS011;40151;43.606;1.472;2023-02-01T16:19:16;2.67;;;1.05;;
54235;SDS011;40151;43.606;1.472;2023-02-01T16:21:42;1.95;;;0.98;;
54235;SDS011;40151;43.606;1.472;2023-02-01T16:24:07;2.58;;;1.23;;
54235;SDS011;40151;43.606;1.472;2023-02-01T16:26:33;2.63;;;1.30;;
54235;SDS011;40151;43.606;1.472;2023-02-01T16:28:59;2.33;;;1.08;;
54235;SDS011;40151;43.606;1.472;2023-02-01T16:31:29;2.65;;;1.20;;
54235;SDS011;40151;43.606;1.472;2023-02-01T16:33:56;1.90;;;1.02;;
54235;SDS011;40151;43.606;1.472;2023-02-01T16:36:22;2.08;;;1.13;;
54235;SDS011;40151;43.606;1.472;2023-02-01T16:38:49;2.05;;;1.05;;
54235;SDS011;40151;43.606;1.472;2023-02-01T16:41:15;1.65;;;0.95;;
54235;SDS011;40151;43.606;1.472;2023-02-01T16:43:43;2.65;;;1.10;;
54235;SDS011;40151;43.606;1.472;2023-02-01T16:46:18;2.78;;;1.10;;
54235;SDS011;40151;43.606;1.472;2023-02-01T16:48:57;2.15;;;1.00;;
54235;SDS011;40151;43.606;1.472;2023-02-01T16:51:24;2.38;;;1.20;;
54235;SDS011;40151;43.606;1.472;2023-02-01T16:53:53;1.60;;;1.00;;
54235;SDS011;40151;43.606;1.472;2023-02-01T16:56:22;1.65;;;0.80;;
54235;SDS011;40151;43.606;1.472;2023-02-01T16:58:50;2.67;;;1.10;;
54235;SDS011;40151;43.606;1.472;2023-02-01T17:01:16;2.10;;;1.02;;
54235;SDS011;40151;43.606;1.472;2023-02-01T17:03:43;1.50;;;0.90;;
54235;SDS011;40151;43.606;1.472;2023-02-01T17:06:11;2.00;;;1.13;;
54235;SDS011;40151;43.606;1.472;2023-02-01T17:08:42;1.98;;;1.00;;
54235;SDS011;40151;43.606;1.472;2023-02-01T17:11:10;1.60;;;0.95;;
54235;SDS011;40151;43.606;1.472;2023-02-01T17:13:37;1.35;;;0.80;;
54235;SDS011;40151;43.606;1.472;2023-02-01T17:16:09;2.17;;;0.98;;
54235;SDS011;40151;43.606;1.472;2023-02-01T17:18:46;1.63;;;0.82;;
54235;SDS011;40151;43.606;1.472;2023-02-01T17:21:24;2.55;;;1.15;;
54235;SDS011;40151;43.606;1.472;2023-02-01T17:23:51;3.65;;;1.00;;
54235;SDS011;40151;43.606;1.472;2023-02-01T17:26:17;2.38;;;0.95;;
54235;SDS011;40151;43.606;1.472;2023-02-01T17:28:43;2.65;;;1.20;;
54235;SDS011;40151;43.606;1.472;2023-02-01T17:31:10;2.13;;;1.00;;
54235;SDS011;40151;43.606;1.472;2023-02-01T17:33:39;1.40;;;0.90;;
54235;SDS011;40151;43.606;1.472;2023-02-01T17:36:05;1.27;;;0.70;;
54235;SDS011;40151;43.606;1.472;2023-02-01T17:38:31;2.17;;;1.08;;
54235;SDS011;40151;43.606;1.472;2023-02-01T17:40:58;1.17;;;0.70;;
54235;SDS011;40151;43.606;1.472;2023-02-01T17:43:24;1.75;;;0.90;;
54235;SDS011;40151;43.606;1.472;2023-02-01T17:45:54;1.65;;;0.85;;
54235;SDS011;40151;43.606;1.472;2023-02-01T17:48:23;2.15;;;0.73;;
54235;SDS011;40151;43.606;1.472;2023-02-01T17:50:49;1.55;;;0.80;;
54235;SDS011;40151;43.606;1.472;2023-02-01T17:53:18;2.22;;;1.08;;
54235;SDS011;40151;43.606;1.472;2023-02-01T17:55:48;2.08;;;0.82;;
54235;SDS011;40151;43.606;1.472;2023-02-01T17:58:15;1.65;;;0.82;;
54235;SDS011;40151;43.606;1.472;2023-02-01T18:00:41;1.42;;;0.85;;
54235;SDS011;40151;43.606;1.472;2023-02-01T18:03:19;2.17;;;1.17;;
54235;SDS011;40151;43.606;1.472;2023-02-01T18:05:46;2.75;;;0.98;;
54235;SDS011;40151;43.606;1.472;2023-02-01T18:08:15;1.65;;;1.08;;
54235;SDS011;40151;43.606;1.472;2023-02-01T18:10:42;1.77;;;0.90;;
54235;SDS011;40151;43.606;1.472;2023-02-01T18:13:08;2.75;;;1.20;;
54235;SDS011;40151;43.606;1.472;2023-02-01T18:15:36;2.65;;;1.05;;
54235;SDS011;40151;43.606;1.472;2023-02-01T18:18:03;2.33;;;1.20;;
54235;SDS011;40151;43.606;1.472;2023-02-01T18:20:29;2.78;;;1.35;;
54235;SDS011;40151;43.606;1.472;2023-02-01T18:22:55;2.50;;;1.27;;
54235;SDS011;40151;43.606;1.472;2023-02-01T18:25:22;3.33;;;1.50;;
54235;SDS011;40151;43.606;1.472;2023-02-01T18:27:49;2.22;;;1.10;;
54235;SDS011;40151;43.606;1.472;2023-02-01T18:30:17;2.63;;;1.20;;
54235;SDS011;40151;43.606;1.472;2023-02-01T18:32:46;3.00;;;1.38;;
54235;SDS011;40151;43.606;1.472;2023-02-01T18:37:49;2.45;;;1.23;;
54235;SDS011;40151;43.606;1.472;2023-02-01T18:40:16;2.75;;;1.08;;
54235;SDS011;40151;43.606;1.472;2023-02-01T18:42:43;2.70;;;1.45;;
54235;SDS011;40151;43.606;1.472;2023-02-01T18:48:00;2.45;;;1.40;;
54235;SDS011;40151;43.606;1.472;2023-02-01T18:50:28;2.60;;;1.55;;
54235;SDS011;40151;43.606;1.472;2023-02-01T18:52:55;2.90;;;1.50;;
54235;SDS011;40151;43.606;1.472;2023-02-01T18:55:23;4.00;;;1.77;;
54235;SDS011;40151;43.606;1.472;2023-02-01T18:57:50;2.85;;;1.52;;
54235;SDS011;40151;43.606;1.472;2023-02-01T19:00:16;3.28;;;1.63;;
54235;SDS011;40151;43.606;1.472;2023-02-01T19:02:43;3.08;;;1.27;;
54235;SDS011;40151;43.606;1.472;2023-02-01T19:05:09;3.95;;;1.58;;
54235;SDS011;40151;43.606;1.472;2023-02-01T19:07:36;3.75;;;1.58;;
54235;SDS011;40151;43.606;1.472;2023-02-01T19:10:06;3.17;;;1.50;;
54235;SDS011;40151;43.606;1.472;2023-02-01T19:12:33;2.70;;;1.60;;
54235;SDS011;40151;43.606;1.472;2023-02-01T19:14:59;2.67;;;1.70;;
54235;SDS011;40151;43.606;1.472;2023-02-01T19:17:26;2.63;;;1.50;;
54235;SDS011;40151;43.606;1.472;2023-02-01T19:19:52;3.83;;;1.98;;
54235;SDS011;40151;43.606;1.472;2023-02-01T19:22:18;3.15;;;1.50;;
54235;SDS011;40151;43.606;1.472;2023-02-01T19:24:43;3.58;;;1.63;;
54235;SDS011;40151;43.606;1.472;2023-02-01T19:27:09;3.45;;;1.88;;
54235;SDS011;40151;43.606;1.472;2023-02-01T19:29:35;3.28;;;1.73;;
54235;SDS011;40151;43.606;1.472;2023-02-01T19:32:03;2.92;;;1.70;;
54235;SDS011;40151;43.606;1.472;2023-02-01T19:34:29;2.97;;;1.63;;
54235;SDS011;40151;43.606;1.472;2023-02-01T19:36:55;3.38;;;1.77;;
54235;SDS011;40151;43.606;1.472;2023-02-01T19:39:21;3.78;;;2.03;;
54235;SDS011;40151;43.606;1.472;2023-02-01T19:41:49;2.95;;;1.58;;
54235;SDS011;40151;43.606;1.472;2023-02-01T19:44:14;3.70;;;1.92;;
54235;SDS011;40151;43.606;1.472;2023-02-01T19:46:40;2.38;;;1.42;;
54235;SDS011;40151;43.606;1.472;2023-02-01T19:49:05;3.78;;;2.28;;
54235;SDS011;40151;43.606;1.472;2023-02-01T19:51:36;3.55;;;2.10;;
54235;SDS011;40151;43.606;1.472;2023-02-01T19:54:06;4.05;;;1.85;;
54235;SDS011;40151;43.606;1.472;2023-02-01T19:56:33;3.25;;;1.58;;
54235;SDS011;40151;43.606;1.472;2023-02-01T19:58:59;3.30;;;1.77;;
54235;SDS011;40151;43.606;1.472;2023-02-01T20:01:24;3.58;;;1.75;;
54235;SDS011;40151;43.606;1.472;2023-02-01T20:03:50;2.38;;;1.63;;
54235;SDS011;40151;43.606;1.472;2023-02-01T20:06:16;2.90;;;2.00;;
54235;SDS011;40151;43.606;1.472;2023-02-01T20:08:41;3.17;;;1.63;;
54235;SDS011;40151;43.606;1.472;2023-02-01T20:11:07;3.55;;;1.70;;
54235;SDS011;40151;43.606;1.472;2023-02-01T20:13:33;2.80;;;1.65;;
54235;SDS011;40151;43.606;1.472;2023-02-01T20:16:00;2.58;;;1.63;;
54235;SDS011;40151;43.606;1.472;2023-02-01T20:18:26;5.18;;;2.00;;
54235;SDS011;40151;43.606;1.472;2023-02-01T20:20:56;3.00;;;1.83;;
54235;SDS011;40151;43.606;1.472;2023-02-01T20:23:23;3.08;;;1.80;;